Liscomb, Iowa
Current Conditions -  °F | °C
As of 5:53 PM on Saturday 22 Nov 2014 (Local Time) from KMIW Reporting Station
Overcast Overcast  
Wind Chill: 50°   Ceiling: 500
Heat Index: 50°   Visibility: 8mi
Dew Point: 48°   Wind: 12mph
Humidity: 93%   Direction: 180°S
Pressure: 29.7"   Gusts: NA
Location:  42.19°N, 93°W
Report Text: KMIW 222353Z AUTO 18010KT 8SM OVC005 10/09 A2970 RMK AO2 SLP062 T01000089 10122 20078 58005
Loading
Personal Weather Stations






























Interactive Weather Map New forecast layout! Learn more

10-Day Weather Forecast

Advertisements
Track Severe Weather on mobile